Data for 09/26/2013

Time Sea-Level Adjusted Pressure Absolute Pressure Temperature Relative Humidity Dew Point   
(mb) (inHg) (mb) (inHg) (C) (F) (%) (C) (F)
00:05 1010 29.83 839 24.78 3.2 37.8 89 1.5 34.7
00:10 1010 29.83 840 24.81 3.2 37.8 90 1.6 35
00:15 1010 29.83 839 24.78 3.2 37.7 88 1.4 34.5
00:20 1010 29.83 839 24.78 3.2 37.7 87 1.2 34.2
00:25 1010 29.83 840 24.81 3.1 37.7 87 1.2 34.1
00:30 1010 29.83 840 24.81 3.2 37.7 87 1.2 34.1
00:35 1010 29.83 840 24.81 3.2 37.7 88 1.3 34.3
00:40 1010 29.83 840 24.81 3.2 37.7 87 1.3 34.4
00:45 1011 29.85 840 24.81 3.1 37.6 88 1.3 34.4
00:50 1011 29.85 840 24.81 3 37.5 87 1.2 34.1
00:55 1011 29.85 840 24.81 3 37.4 88 1.2 34.1
01:00 1011 29.85 840 24.81 2.9 37.3 87 1 33.9
01:05 1011 29.85 840 24.81 2.9 37.2 88 1.1 33.9
01:10 1011 29.85 840 24.81 2.9 37.3 87 1 33.8
01:15 1011 29.85 840 24.81 2.9 37.2 88 1 33.9
01:20 1011 29.85 840 24.81 2.8 37.1 88 1 33.8
01:25 1011 29.85 840 24.81 2.9 37.2 87 0.9 33.6
01:30 1011 29.85 840 24.81 2.8 37.1 86 0.8 33.4
01:35 1011 29.85 840 24.81 2.9 37.2 87 0.9 33.7
01:40 1011 29.85 840 24.81 2.9 37.2 88 1.1 34.1
01:45 1011 29.85 840 24.81 2.9 37.3 89 1.2 34.2
01:50 1011 29.85 840 24.81 2.9 37.3 88 1.2 34.2
01:55 1011 29.85 840 24.81 2.9 37.3 88 1.1 34
02:00 1011 29.85 840 24.81 2.9 37.2 88 1.1 34
02:05 1011 29.85 840 24.81 3 37.3 88 1.2 34.1
02:10 1011 29.85 840 24.81 2.9 37.3 89 1.3 34.3
02:15 1011 29.85 840 24.81 3 37.4 89 1.3 34.3
02:20 1011 29.85 840 24.81 3 37.4 89 1.4 34.5
02:25 1011 29.85 840 24.81 3 37.5 89 1.4 34.5
02:30 1011 29.85 840 24.81 3 37.5 89 1.4 34.5
02:35 1011 29.85 840 24.81 3 37.5 89 1.4 34.5
02:40 1011 29.85 841 24.83 3 37.4 89 1.4 34.4
02:45 1011 29.85 841 24.83 3 37.3 90 1.4 34.6
02:50 1011 29.85 841 24.83 3 37.4 89 1.4 34.6
02:55 1011 29.85 841 24.83 2.9 37.3 89 1.3 34.4
03:00 1011 29.85 841 24.83 3 37.3 90 1.5 34.8
03:05 1011 29.85 841 24.83 3 37.5 90 1.6 34.8
03:10 1011 29.85 841 24.83 3.1 37.5 90 1.5 34.7
03:15 1011 29.85 841 24.83 3 37.5 90 1.5 34.7
03:20 1011 29.85 841 24.83 3 37.4 90 1.5 34.6
03:25 1011 29.85 841 24.83 3 37.3 89 1.4 34.5
03:30 1011 29.85 841 24.83 2.9 37.3 90 1.4 34.6
03:35 1012 29.88 841 24.83 2.9 37.2 90 1.4 34.5
03:40 1012 29.88 841 24.83 2.9 37.2 90 1.3 34.4
03:45 1012 29.88 841 24.83 2.9 37.1 90 1.4 34.6
03:50 1012 29.88 841 24.83 2.8 37.1 90 1.3 34.4
03:55 1012 29.88 841 24.83 2.9 37.2 90 1.4 34.5
04:00 1012 29.88 841 24.83 2.9 37.2 89 1.2 34.2
04:05 1012 29.88 841 24.83 3 37.3 89 1.3 34.4
04:10 1012 29.88 841 24.83 3 37.4 89 1.4 34.5
04:15 1012 29.88 841 24.83 2.9 37.3 89 1.4 34.5
04:20 1012 29.88 841 24.83 2.9 37.3 90 1.4 34.6
04:25 1012 29.88 841 24.83 3 37.3 90 1.5 34.7
04:30 1012 29.88 841 24.83 2.9 37.3 90 1.4 34.6
04:35 1012 29.88 841 24.83 2.9 37.3 90 1.5 34.7
04:40 1012 29.88 841 24.83 2.9 37.3 90 1.5 34.7
04:45 1012 29.88 841 24.83 2.9 37.3 90 1.5 34.7
04:50 1012 29.88 841 24.83 3 37.4 91 1.6 34.9
04:55 1012 29.88 841 24.83 3 37.5 91 1.6 34.9
05:00 1012 29.88 841 24.83 3 37.5 91 1.7 35
05:05 1012 29.88 841 24.83 3 37.5 90 1.6 34.9
05:10 1012 29.88 841 24.83 3 37.4 91 1.7 35
05:15 1012 29.88 841 24.83 3 37.5 90 1.6 34.9
05:20 1012 29.88 841 24.83 3 37.4 91 1.6 34.9
05:25 1012 29.88 841 24.83 3 37.4 91 1.7 35.1
05:30 1012 29.88 841 24.83 3 37.4 92 1.8 35.2
05:35 1012 29.88 842 24.86 3 37.4 91 1.7 35.1
05:40 1012 29.88 842 24.86 2.9 37.3 92 1.8 35.2
05:45 1012 29.88 842 24.86 2.9 37.2 92 1.8 35.2
05:50 1012 29.88 842 24.86 2.8 37.1 93 1.8 35.2
05:55 1012 29.88 842 24.86 2.8 37.1 92 1.7 35
06:00 1013 29.91 842 24.86 2.8 37.1 92 1.6 34.9
06:05 1013 29.91 842 24.86 2.8 37 92 1.6 34.8
06:10 1013 29.91 842 24.86 2.8 37.1 92 1.6 34.9
06:15 1013 29.91 842 24.86 2.8 37.1 92 1.6 35
06:20 1013 29.91 842 24.86 2.9 37.1 91 1.5 34.7
06:25 1013 29.91 842 24.86 2.8 37 91 1.5 34.7
06:30 1013 29.91 842 24.86 2.7 36.9 92 1.6 34.8
06:35 1013 29.91 842 24.86 2.7 36.8 92 1.5 34.8
06:40 1013 29.91 842 24.86 2.7 36.9 92 1.5 34.8
06:45 1013 29.91 842 24.86 2.8 37 92 1.6 34.8
06:50 1013 29.91 842 24.86 2.7 36.9 92 1.6 34.8
06:55 1013 29.91 842 24.86 2.6 36.7 92 1.5 34.7
07:00 1013 29.91 842 24.86 2.4 36.4 93 1.4 34.5
07:05 1013 29.91 842 24.86 2.3 36.2 93 1.3 34.3
07:10 1013 29.91 842 24.86 2.3 36.2 93 1.3 34.4
07:15 1013 29.91 842 24.86 2.3 36.1 93 1.3 34.4
07:20 1013 29.91 843 24.89 2.3 36.1 93 1.2 34.2
07:25 1013 29.91 843 24.89 2.1 35.8 94 1.2 34.1
07:30 1013 29.91 843 24.89 2.1 35.9 93 1.2 34.1
07:35 1013 29.91 843 24.89 2 35.7 94 1.1 34
07:40 1014 29.94 843 24.89 1.9 35.5 94 1 33.9
07:45 1014 29.94 843 24.89 1.9 35.4 94 1 33.8
07:50 1014 29.94 843 24.89 1.9 35.3 94 1 33.8
07:55 1014 29.94 843 24.89 1.7 35.1 94 0.9 33.6
08:00 1014 29.94 843 24.89 1.7 35 94 0.9 33.5
08:05 1014 29.94 843 24.89 1.5 34.8 95 0.7 33.3
08:10 1014 29.94 843 24.89 1.6 34.8 94 0.7 33.3
08:15 1014 29.94 843 24.89 1.7 35 94 0.8 33.5
08:20 1014 29.94 843 24.89 1.5 34.8 94 0.7 33.2
08:25 1014 29.94 843 24.89 1.5 34.6 94 0.6 33.1
08:30 1014 29.94 843 24.89 1.5 34.7 94 0.6 33
08:35 1014 29.94 843 24.89 1.5 34.8 93 0.6 33
08:40 1014 29.94 843 24.89 1.7 35 93 0.7 33.2
08:45 1014 29.94 843 24.89 1.7 35.1 93 0.6 33.2
08:50 1014 29.94 843 24.89 1.7 35.1 93 0.8 33.4
08:55 1014 29.94 843 24.89 1.8 35.2 93 0.8 33.4
09:00 1014 29.94 844 24.92 1.7 35.1 93 0.8 33.4
09:05 1014 29.94 844 24.92 1.9 35.4 93 0.9 33.6
09:10 1014 29.94 844 24.92 1.9 35.4 92 0.8 33.4
09:15 1015 29.97 844 24.92 1.9 35.3 93 0.8 33.5
09:20 1015 29.97 844 24.92 1.8 35.2 94 0.9 33.5
09:25 1015 29.97 844 24.92 1.8 35.2 93 0.8 33.4
09:30 1015 29.97 844 24.92 1.7 35.1 93 0.7 33.2
09:35 1015 29.97 844 24.92 1.6 34.8 92 0.5 32.8
09:40 1015 29.97 844 24.92 1.4 34.5 92 0.3 32.5
09:45 1015 29.97 844 24.92 1.2 34.1 93 0.2 32.4
09:50 1015 29.97 844 24.92 1.1 34 94 0.2 32.3
09:55 1015 29.97 844 24.92 1.1 33.9 93 0.1 32.1
10:00 1015 29.97 844 24.92 0.9 33.7 94 0.1 32.1
10:05 1015 29.97 844 24.92 1 33.7 94 0.1 32.2
10:10 1015 29.97 844 24.92 0.9 33.7 94 0.1 32.2
10:15 1015 29.97 844 24.92 0.9 33.6 95 0.1 32.2
10:20 1015 29.97 844 24.92 1 33.7 95 0.2 32.3
10:25 1015 29.97 844 24.92 1 33.9 94 0.2 32.4
10:30 1015 29.97 844 24.92 1.2 34.1 94 0.3 32.6
10:35 1015 29.97 844 24.92 1.2 34.1 94 0.3 32.6
10:40 1015 29.97 844 24.92 1.4 34.5 94 0.5 32.8
10:45 1015 29.97 844 24.92 1.6 34.8 92 0.5 32.8
10:50 1015 29.97 844 24.92 1.6 34.9 92 0.5 32.9
10:55 1015 29.97 844 24.92 1.8 35.2 91 0.5 32.9
11:00 1015 29.97 844 24.92 1.7 35.1 91 0.4 32.7
11:05 1015 29.97 844 24.92 2 35.5 91 0.6 33
11:10 1015 29.97 844 24.92 2.3 36.2 89 0.8 33.4
11:15 1015 29.97 844 24.92 2.6 36.7 91 1.2 34.2
11:20 1015 29.97 844 24.92 2.8 37.1 88 1 33.8
11:25 1015 29.97 844 24.92 2.8 37 87 0.9 33.6
11:30 1015 29.97 844 24.92 2.8 37 88 0.9 33.6
11:35 1015 29.97 844 24.92 2.7 36.8 90 1.1 34
11:40 1015 29.97 844 24.92 2.9 37.2 86 0.8 33.4
11:45 1015 29.97 844 24.92 2.8 37.1 86 0.7 33.3
11:50 1015 29.97 844 24.92 2.9 37.2 85 0.6 33.1
11:55 1015 29.97 844 24.92 2.9 37.2 88 1.1 34
12:00 1015 29.97 844 24.92 3.2 37.8 87 1.2 34.1
12:05 1015 29.97 844 24.92 3.2 37.8 84 0.9 33.5
12:10 1015 29.97 844 24.92 3.3 37.9 84 0.8 33.5
12:15 1015 29.97 844 24.92 3.5 38.3 82 0.7 33.3
12:20 1015 29.97 844 24.92 3.5 38.2 80 0.3 32.6
12:25 1015 29.97 844 24.92 3.4 38.1 84 1 33.8
12:30 1015 29.97 844 24.92 3.5 38.2 85 1.2 34.1
12:35 1015 29.97 844 24.92 3.7 38.6 81 0.7 33.3
12:40 1015 29.97 844 24.92 3.6 38.5 79 0.4 32.7
12:45 1015 29.97 844 24.92 3.6 38.4 80 0.4 32.8
12:50 1015 29.97 845 24.95 3.7 38.6 80 0.5 32.8
12:55 1015 29.97 844 24.92 3.7 38.7 80 0.6 33.2
13:00 1015 29.97 845 24.95 3.8 38.8 80 0.7 33.3
13:05 1015 29.97 845 24.95 3.8 38.8 79 0.6 33
13:10 1015 29.97 845 24.95 3.9 39 76 0.2 32.3
13:15 1015 29.97 845 24.95 3.8 38.9 80 0.7 33.3
13:20 1015 29.97 845 24.95 4 39.2 79 0.6 33.1
13:25 1015 29.97 845 24.95 4.1 39.4 79 0.9 33.6
13:30 1015 29.97 845 24.95 4.1 39.4 79 0.8 33.4
13:35 1015 29.97 845 24.95 4.2 39.5 79 0.8 33.5
13:40 1015 29.97 845 24.95 4.4 40 74 0.3 32.5
13:45 1016 30 845 24.95 4.3 39.7 78 0.8 33.4
13:50 1015 29.97 845 24.95 4.4 40 76 0.6 33
13:55 1015 29.97 845 24.95 4.6 40.4 76 0.8 33.4
14:00 1016 30 845 24.95 4.7 40.5 76 0.9 33.6
14:05 1016 30 845 24.95 4.8 40.6 75 0.8 33.4
14:10 1016 30 845 24.95 4.8 40.7 77 1.1 34
14:15 1016 30 845 24.95 5 41 72 0.5 32.8
14:20 1016 30 845 24.95 4.9 40.8 74 0.6 33.1
14:25 1016 30 845 24.95 4.7 40.5 75 0.7 33.3
14:30 1016 30 845 24.95 4.8 40.6 75 0.7 33.2
14:35 1016 30 845 24.95 4.8 40.6 75 0.7 33.2
14:40 1016 30 845 24.95 4.8 40.7 76 0.9 33.7
14:45 1016 30 845 24.95 4.7 40.4 77 1 33.8
14:50 1016 30 845 24.95 4.9 40.8 76 1 33.9
14:55 1016 30 845 24.95 5.2 41.3 75 1 33.8
15:00 1016 30 845 24.95 5.3 41.5 75 1.2 34.1
15:05 1016 30 845 24.95 5.1 41.2 76 1.2 34.1
15:10 1016 30 845 24.95 5.2 41.4 71 0.5 32.8
15:15 1016 30 845 24.95 5.1 41.1 73 0.7 33.3
15:20 1016 30 845 24.95 4.8 40.7 73 0.4 32.8
15:25 1016 30 845 24.95 4.8 40.6 75 0.7 33.3
15:30 1016 30 845 24.95 4.8 40.6 74 0.6 33
15:35 1016 30 845 24.95 4.8 40.7 73 0.4 32.8
15:40 1016 30 845 24.95 4.9 40.8 73 0.4 32.7
15:45 1016 30 845 24.95 5.2 41.4 69 0.1 32.2
15:50 1016 30 845 24.95 5.4 41.7 70 0.3 32.6
15:55 1016 30 845 24.95 5.3 41.6 73 0.8 33.5
16:00 1016 30 845 24.95 5.1 41.1 71 0.2 32.4
16:05 1016 30 845 24.95 5.2 41.3 71 0.3 32.5
16:10 1016 30 845 24.95 5.2 41.3 72 0.5 32.9
16:15 1016 30 845 24.95 5.3 41.6 71 0.4 32.8
16:20 1016 30 845 24.95 5.4 41.8 70 0.3 32.6
16:25 1016 30 845 24.95 5.5 41.9 71 0.6 33.2
16:30 1016 30 845 24.95 5.5 41.8 71 0.7 33.3
16:35 1016 30 845 24.95 5.3 41.6 72 0.6 33.1
16:40 1016 30 845 24.95 5.2 41.3 72 0.5 33
16:45 1016 30 845 24.95 5.3 41.6 70 0.4 32.7
16:50 1016 30 845 24.95 5.3 41.6 71 0.5 32.9
16:55 1016 30 845 24.95 5.3 41.5 71 0.5 32.8
17:00 1016 30 845 24.95 5.4 41.8 70 0.4 32.7
17:05 1016 30 845 24.95 5.5 41.8 69 0.2 32.4
17:10 1016 30 845 24.95 5.4 41.8 69 0.2 32.4
17:15 1016 30 846 24.98 5.4 41.7 69 0.2 32.3
17:20 1016 30 845 24.95 5.3 41.6 71 0.6 33
17:25 1016 30 846 24.98 5.2 41.3 75 1 33.9
17:30 1016 30 846 24.98 4.9 40.8 78 1.3 34.4
17:35 1016 30 846 24.98 4.6 40.3 79 1.2 34.1
17:40 1016 30 846 24.98 4.3 39.7 80 1.2 34.1
17:45 1016 30 846 24.98 4 39.2 80 0.9 33.6
17:50 1016 30 846 24.98 3.9 39 81 0.9 33.7
17:55 1017 30.03 846 24.98 3.8 38.9 81 0.9 33.6
18:00 1017 30.03 846 24.98 3.8 38.8 80 0.7 33.2
18:05 1017 30.03 846 24.98 3.7 38.7 80 0.5 32.9
18:10 1017 30.03 846 24.98 3.7 38.6 80 0.5 33
18:15 1017 30.03 846 24.98 3.6 38.5 81 0.6 33.1
18:20 1017 30.03 846 24.98 3.6 38.4 79 0.3 32.6
18:25 1017 30.03 846 24.98 3.5 38.4 79 0.2 32.3
18:30 1017 30.03 846 24.98 3.5 38.3 80 0.4 32.6
18:35 1016 30 846 24.98 3.4 38.2 79 0.1 32.1
18:40 1016 30 845 24.95 3.4 38.1 80 0.2 32.3
18:45 1016 30 845 24.95 3.3 37.9 80 0.1 32.1
18:50 1016 30 846 24.98 3.2 37.8 80 0.1 32.1
18:55 1016 30 846 24.98 3.1 37.6 81 0.1 32.2
19:00 1017 30.03 846 24.98 3.1 37.6 80 0 32.1
19:05 1017 30.03 846 24.98 3.1 37.6 80 0.1 32.1
19:10 1017 30.03 846 24.98 3.1 37.6 80 -0.1 31.9
19:15 1017 30.03 846 24.98 3.1 37.7 79 -0.2 31.7
19:20 1017 30.03 846 24.98 3.2 37.8 78 -0.3 31.4
19:25 1017 30.03 846 24.98 3.3 37.9 77 -0.3 31.4
19:30 1016 30 846 24.98 3.3 37.9 77 -0.3 31.5
19:35 1017 30.03 846 24.98 3.3 37.9 78 -0.2 31.7
19:40 1017 30.03 846 24.98 3.3 37.9 79 -0.1 31.9
19:45 1017 30.03 846 24.98 3.2 37.7 79 -0.2 31.7
19:50 1017 30.03 846 24.98 3.1 37.6 79 -0.1 31.8
19:55 1017 30.03 846 24.98 3.1 37.7 79 -0.1 31.8
20:00 1017 30.03 846 24.98 3.2 37.7 79 -0.2 31.7
20:05 1017 30.03 846 24.98 3.2 37.7 79 -0.1 31.8
20:10 1017 30.03 846 24.98 3.2 37.7 79 -0.1 31.9
20:15 1017 30.03 846 24.98 3.2 37.7 80 0 32
20:20 1017 30.03 846 24.98 3.1 37.6 80 -0 32
20:25 1017 30.03 846 24.98 3 37.4 80 -0.2 31.7
20:30 1017 30.03 846 24.98 3.1 37.5 80 -0.1 31.8
20:35 1017 30.03 846 24.98 3 37.5 80 -0.1 31.8
20:40 1017 30.03 846 24.98 3 37.4 80 -0.1 31.8
20:45 1016 30 846 24.98 3 37.3 80 -0.1 31.8
20:50 1016 30 845 24.95 2.9 37.3 81 -0 31.9
20:55 1016 30 846 24.98 2.9 37.2 81 -0 32
21:00 1017 30.03 846 24.98 2.9 37.2 81 -0 32
21:05 1017 30.03 846 24.98 2.9 37.2 83 0.2 32.4
21:10 1017 30.03 846 24.98 2.8 37 83 0.2 32.4
21:15 1016 30 846 24.98 2.8 37 82 -0.1 31.9
21:20 1016 30 846 24.98 2.8 37.1 82 0 32.1
21:25 1016 30 845 24.95 2.8 37.1 82 0 32.1
21:30 1017 30.03 846 24.98 2.9 37.1 83 0.3 32.5
21:35 1017 30.03 846 24.98 2.9 37.2 83 0.3 32.6
21:40 1017 30.03 846 24.98 2.8 37.1 84 0.4 32.7
21:45 1017 30.03 846 24.98 2.8 37.1 85 0.5 32.9
21:50 1017 30.03 846 24.98 2.8 37 85 0.5 33
21:55 1017 30.03 846 24.98 2.7 36.9 86 0.6 33.1
22:00 1017 30.03 846 24.98 2.7 36.8 86 0.6 33
22:05 1017 30.03 846 24.98 2.7 36.8 86 0.5 32.9
22:10 1017 30.03 846 24.98 2.6 36.7 86 0.5 32.9
22:15 1017 30.03 846 24.98 2.6 36.7 83 -0 32
22:20 1017 30.03 846 24.98 2.5 36.4 82 -0.2 31.6
22:25 1017 30.03 846 24.98 2.4 36.3 82 -0.4 31.4
22:30 1017 30.03 846 24.98 2.3 36.2 82 -0.4 31.2
22:35 1017 30.03 846 24.98 2.3 36.2 82 -0.5 31.1
22:40 1017 30.03 846 24.98 2.4 36.2 82 -0.5 31.1
22:45 1017 30.03 847 25.01 2.4 36.3 82 -0.4 31.3
22:50 1017 30.03 847 25.01 2.4 36.4 81 -0.5 31.1
22:55 1017 30.03 847 25.01 2.5 36.5 81 -0.5 31.1
23:00 1017 30.03 847 25.01 2.5 36.5 80 -0.5 31
23:05 1017 30.03 847 25.01 2.5 36.6 81 -0.4 31.3
23:10 1017 30.03 847 25.01 2.5 36.5 81 -0.4 31.3
23:15 1017 30.03 847 25.01 2.5 36.6 82 -0.3 31.5
23:20 1017 30.03 846 24.98 2.5 36.6 82 -0.2 31.7
23:25 1017 30.03 846 24.98 2.5 36.6 83 -0.1 31.8
23:30 1017 30.03 846 24.98 2.5 36.5 83 -0.1 31.9
23:35 1017 30.03 846 24.98 2.5 36.5 83 -0.2 31.6
23:40 1017 30.03 846 24.98 2.5 36.6 83 -0.1 31.9
23:45 1017 30.03 846 24.98 2.6 36.6 81 -0.3 31.4
23:50 1017 30.03 846 24.98 2.6 36.7 82 -0.2 31.6
23:55 1017 30.03 846 24.98 2.5 36.5 83 -0.1 31.8
24:00 1017 30.03 846 24.98 2.4 36.3 83 -0.1 31.8